Terminal Aerodrome Forecast
Issued by NWS Quad Cities IA IL

Home | Current Version | Previous Version | Text Only | Print | Product List | Glossary On
Versions: 1 2 3 4 5 6 7 8 9 10 11 12 13 14 15 16 17 18 19 20 21 22 23 24 25 26 27 28 29 30 31 32 33 34 35 36 37 38 39 40
687
FTUS43 KDVN 291502 AAB
TAFDBQ
TAF AMD
KDBQ 291502Z 2915/3012 09015KT 6SM BR SCT005
     FM291600 08015G20KT 6SM -RA BR OVC010
     FM292200 08019G27KT 2SM -RA BR OVC006
     FM300300 07020G28KT 1SM -RA BR OVC007
     FM300700 07018G24KT 1SM RA BR OVC005=

USA.gov is the U.S. government's official web portal to all federal, state and local government web resources and services.